Terminal Aerodrome Forecast
Issued by NWS

Home | Current Version | Previous Version | Graphics & Text | Print | Product List | Glossary On
Versions: 1 2 3 4 5 6 7 8 9 10 11 12 13 14 15
543
FTUS43 KTOP 191132
TAFFOE
TAF
KFOE 191132Z 1912/2012 30006KT P6SM SKC
     FM191600 22012KT P6SM SKC=

USA.gov is the U.S. government's official web portal to all federal, state and local government web resources and services.